UKWW/VIN METAR and TAF weather

Enter ICAO airport designator
Station Type Date Time Source
UKWW METAR 2020/01/28 18:00 UTC NOAA

UKWW 281800Z 15005MPS 0150 FZFG VV001 M01/M01 Q1006 NOSIG


Station Type Date Time Source
UKWW Decoded METAR 2020/01/28 18:00 UTC NOAA

Station name not available
Jan 28, 2020 - 01:00 PM EST / 2020.01.28 1800 UTC
Wind: from the SSE (150 degrees) at 11 MPH (10 KT):0
Visibility: less than 1 mile:0
Sky conditions: obscured
Weather: freezing fog
Temperature: 30 F (-1 C)
Windchill: 21 F (-6 C):1
Dew Point: 30 F (-1 C)
Relative Humidity: 100%
Pressure (altimeter): 29.71 in. Hg (1006 hPa)
ob: UKWW 281800Z 15005MPS 0150 FZFG VV001 M01/M01 Q1006 NOSIG
cycle: 18

Station Type Date Time Source
UKWW TAF 2010/03/21 10:45 UTC NOAA

TAF UKWW 211045Z 2112/2212 24005G10MPS 9999 SCT020 BKN070
TEMPO 2115/2207 1400 -SHRA BR SCT004 BKN007CB
FM220700 34007G12MPS 9999 SCT015 BKN100 TX11/2112Z TN01/2204Z

Example: see airport list